Main page
METAR-TAF:

METAR-TAF

Airports :

Getafe Air Base

Madrid-Getafe, Spain

latitude: 40-18N, longitude: 003-43W, elevation: 620 m

Current weather observation

The report was made 2 hours and 0 minutes ago, at 18:00 UTC
Calm wind
Temperature 15°C
Humidity 88%
Pressure 1020 hPa
Visibility 10 km or more
Scattered clouds at a height of 2400 ft
light rain

METAR: LEGT 091800Z 00000KT 9999 -RA SCT024 15/13 Q1020

Time: 22:00 (20:00 UTC)

Forecast

The report was made 3 hours and 0 minutes ago, at 17:00 UTC
Forecast valid from 09 at 18 UTC to 10 at 03 UTC
Wind 5 kt from variable directions
Visibility 10 km or more
Scattered clouds at a height of 3000 ft
Broken clouds at a height of 4500 ft
Probability 40% :
Temporary
from 09 at 18 UTC to 10 at 03 UTC
Visibility: 3000 m
Scattered clouds at a height of 1400 ft
Scattered clouds at a height of 3000 ft, Towering cumulus.
rain, rain showers

TAF: LEGT 091700Z 0918/1003 VRB05KT 9999 SCT030 BKN045 PROB40 TEMPO 0918/1003 3000 RA SHRA SCT014 SCT030TCU

Weather observations and forecasts of more than 4000 airports (METAR and TAF reports).

The available stations are represented by yellow and red dots on the map.

Hover mouse over dot to see the name of the station.

Then click to see weather observations and forecasts.

To change the map : click on the green buttons with a black cross to zoom in, on the green button with a dash to zoom out, or on the green arrows for adjacent maps.


METAR-TAF: